Time;durP1;ratioP1;P1;durP2;ratioP2;P2;SDS_P1;SDS_P2;PMS_P1;PMS_P2;Temp;Humidity;BMP_temperature;BMP_pressure;BME280_temperature;BME280_humidity;BME280_pressure;Samples;Min_cycle;Max_cycle;Signal;HPM_P1;HPM_P2
2023/10/22 00:00:35;;;;;;;0.7;0.7;;;;;;;11.4;98.11328;929.8699;;;;
2023/10/22 00:03:00;;;;;;;0.7;0.6;;;;;;;11.38;98.83984;929.8755;;;;
2023/10/22 00:05:26;;;;;;;1.1;0.4;;;;;;;11.46;98.35449;929.9136;;;;
2023/10/22 00:07:51;;;;;;;0.4;0.4;;;;;;;11.59;97.56152;929.9475;;;;
2023/10/22 00:10:16;;;;;;;0.7;0.5;;;;;;;11.55;97.8623;930.0181;;;;
2023/10/22 00:12:41;;;;;;;0.3;0.3;;;;;;;11.5;97.58691;929.9626;;;;
2023/10/22 00:15:11;;;;;;;0.5;0.4;;;;;;;11.43;97.74414;930.0477;;;;
2023/10/22 00:17:43;;;;;;;0.5;0.4;;;;;;;11.36;97.22461;930.0535;;;;
2023/10/22 00:20:14;;;;;;;0.3;0.3;;;;;;;11.46;97.46387;930.1454;;;;
2023/10/22 00:22:41;;;;;;;0.4;0.4;;;;;;;11.43;98.0166;930.1099;;;;
2023/10/22 00:25:06;;;;;;;0.3;0.3;;;;;;;11.47;96.89355;930.1055;;;;
2023/10/22 00:27:32;;;;;;;0.2;0.2;;;;;;;11.45;97.28809;930.1145;;;;
2023/10/22 00:29:56;;;;;;;0.3;0.3;;;;;;;11.52;96.32227;930.1067;;;;
2023/10/22 00:32:22;;;;;;;0.2;0.2;;;;;;;11.16;98.32129;930.1716;;;;
2023/10/22 00:34:50;;;;;;;0.1;0.1;;;;;;;11.03;98.57813;930.0927;;;;
2023/10/22 00:37:14;;;;;;;0.1;0.1;;;;;;;11.15;98.71973;930.1772;;;;
2023/10/22 00:39:43;;;;;;;0.5;0.2;;;;;;;11.25;97.73535;930.2821;;;;
2023/10/22 00:42:07;;;;;;;0.2;0.2;;;;;;;11.28;96.66895;930.3242;;;;
2023/10/22 00:44:37;;;;;;;0.2;0.2;;;;;;;11.39;96.39551;930.3337;;;;
2023/10/22 00:47:07;;;;;;;0.2;0.2;;;;;;;11.46;96.36523;930.3423;;;;
2023/10/22 00:49:32;;;;;;;0.2;0.1;;;;;;;11.5;96.07617;930.3597;;;;
2023/10/22 00:52:00;;;;;;;0.2;0.2;;;;;;;11.47;96.53906;930.3328;;;;
2023/10/22 00:54:25;;;;;;;0.8;0.3;;;;;;;11.38;97.82324;930.3873;;;;
2023/10/22 00:56:50;;;;;;;0.2;0.2;;;;;;;11.37;98.15332;930.3794;;;;
2023/10/22 00:59:16;;;;;;;0.2;0.2;;;;;;;11.39;97.72266;930.3633;;;;
2023/10/22 01:01:47;;;;;;;0.2;0.2;;;;;;;11.4;97.41504;930.3528;;;;
2023/10/22 01:04:14;;;;;;;0.2;0.2;;;;;;;11.32;97.93457;930.4275;;;;
2023/10/22 01:06:39;;;;;;;0.1;0.1;;;;;;;11.25;97.78125;930.4041;;;;
2023/10/22 01:09:13;;;;;;;0.1;0.1;;;;;;;11.3;97.12988;930.3981;;;;
2023/10/22 01:11:40;;;;;;;0.6;0.2;;;;;;;11.35;95.88184;930.4217;;;;
2023/10/22 01:14:09;;;;;;;0.3;0.2;;;;;;;11.36;95.91797;930.4272;;;;
2023/10/22 01:16:41;;;;;;;0.6;0.2;;;;;;;11.46;96.06836;930.4238;;;;
2023/10/22 01:19:10;;;;;;;0.3;0.2;;;;;;;11.36;94.53418;930.3929;;;;
2023/10/22 01:21:35;;;;;;;0.3;0.2;;;;;;;11.34;95.21875;930.4512;;;;
2023/10/22 01:24:03;;;;;;;0.2;0.2;;;;;;;11.26;95.91895;930.4486;;;;
2023/10/22 01:26:28;;;;;;;0.4;0.3;;;;;;;11.26;96.18457;930.5179;;;;
2023/10/22 01:28:53;;;;;;;0.2;0.2;;;;;;;11.25;97.4043;930.5123;;;;
2023/10/22 01:31:18;;;;;;;0.2;0.2;;;;;;;11.37;96.89258;930.5698;;;;
2023/10/22 01:33:43;;;;;;;0.2;0.2;;;;;;;11.27;97.00977;930.6047;;;;
2023/10/22 01:36:13;;;;;;;0.2;0.2;;;;;;;11.19;97.80176;930.6448;;;;
2023/10/22 01:38:41;;;;;;;0.2;0.2;;;;;;;11.18;98.5791;930.6336;;;;
2023/10/22 01:41:06;;;;;;;0.3;0.2;;;;;;;11.21;98.89551;930.66;;;;
2023/10/22 01:43:31;;;;;;;0.2;0.2;;;;;;;11.23;98.49512;930.6464;;;;
2023/10/22 01:45:56;;;;;;;0.4;0.3;;;;;;;11.24;98.22754;930.7356;;;;
2023/10/22 01:48:25;;;;;;;0.9;0.5;;;;;;;11.29;97.76855;930.8094;;;;
2023/10/22 01:50:55;;;;;;;0.5;0.5;;;;;;;11.3;98.22852;930.7496;;;;
2023/10/22 01:53:21;;;;;;;0.2;0.2;;;;;;;11.33;97.55762;930.7296;;;;
2023/10/22 01:55:53;;;;;;;0.3;0.3;;;;;;;11.39;97.04492;930.7834;;;;
2023/10/22 01:58:22;;;;;;;1.1;0.4;;;;;;;11.46;96.76563;930.8326;;;;
2023/10/22 02:00:50;;;;;;;0.4;0.4;;;;;;;11.47;96.8252;930.8892;;;;
2023/10/22 02:03:20;;;;;;;0.4;0.2;;;;;;;11.3;95.33398;930.8014;;;;
2023/10/22 02:05:45;;;;;;;0.4;0.2;;;;;;;11.31;95.63379;930.7926;;;;
2023/10/22 02:08:14;;;;;;;0.2;0.2;;;;;;;11.35;95.0127;930.7637;;;;
2023/10/22 02:10:39;;;;;;;0.1;0.1;;;;;;;11.38;94.75586;930.7954;;;;
2023/10/22 02:13:07;;;;;;;0.1;0.1;;;;;;;11.43;94.73242;930.7994;;;;
2023/10/22 02:15:32;;;;;;;0.4;0.3;;;;;;;11.45;95.60645;930.8766;;;;
2023/10/22 02:17:59;;;;;;;0.3;0.3;;;;;;;11.32;96.57324;930.9137;;;;
2023/10/22 02:20:24;;;;;;;0.2;0.2;;;;;;;11.38;96.63184;930.9102;;;;
2023/10/22 02:22:52;;;;;;;0.2;0.2;;;;;;;11.41;96.30762;930.8909;;;;
2023/10/22 02:25:17;;;;;;;0.3;0.3;;;;;;;11.32;96.66504;930.8889;;;;
2023/10/22 02:27:47;;;;;;;0.2;0.2;;;;;;;11.36;96.41211;930.9158;;;;
2023/10/22 02:30:18;;;;;;;0.5;0.3;;;;;;;11.31;96.58301;930.9344;;;;
2023/10/22 02:32:51;;;;;;;0.4;0.3;;;;;;;11.41;96.12695;930.8911;;;;
2023/10/22 02:35:21;;;;;;;0.8;0.4;;;;;;;11.47;95.40625;930.9163;;;;
2023/10/22 02:37:47;;;;;;;0.5;0.3;;;;;;;11.5;95.46973;930.9264;;;;
2023/10/22 02:40:13;;;;;;;0.5;0.3;;;;;;;11.49;95.37598;930.8309;;;;
2023/10/22 02:42:38;;;;;;;0.3;0.3;;;;;;;11.47;95.32617;930.9059;;;;
2023/10/22 02:45:06;;;;;;;0.8;0.4;;;;;;;11.48;95.66016;930.8898;;;;
2023/10/22 02:47:31;;;;;;;0.3;0.3;;;;;;;11.39;96.29199;930.8758;;;;
2023/10/22 02:50:00;;;;;;;0.2;0.2;;;;;;;11.36;96.89063;930.9207;;;;
2023/10/22 02:52:28;;;;;;;0.5;0.2;;;;;;;11.28;96.79199;930.8956;;;;
2023/10/22 02:54:53;;;;;;;0.2;0.2;;;;;;;11.19;96.38574;930.8614;;;;
2023/10/22 02:57:21;;;;;;;0.2;0.2;;;;;;;11.18;95.35254;930.9412;;;;
2023/10/22 02:59:47;;;;;;;0.2;0.2;;;;;;;11.26;95.36035;930.965;;;;
2023/10/22 03:02:12;;;;;;;0.4;0.3;;;;;;;11.29;95.7666;931.007;;;;
2023/10/22 03:04:40;;;;;;;0.3;0.3;;;;;;;11.22;95.60254;931.056;;;;
2023/10/22 03:07:05;;;;;;;0.5;0.5;;;;;;;11.23;95.55859;931.0783;;;;
2023/10/22 03:09:32;;;;;;;0.2;0.2;;;;;;;11.08;95.9043;931.0779;;;;
2023/10/22 03:12:02;;;;;;;0.2;0.2;;;;;;;10.9;95.26953;931.0854;;;;
2023/10/22 03:14:32;;;;;;;0.8;0.2;;;;;;;10.62;95.10352;931.0591;;;;
2023/10/22 03:16:58;;;;;;;0.5;0.3;;;;;;;10.59;97.71191;931.0508;;;;
2023/10/22 03:19:28;;;;;;;0.2;0.2;;;;;;;10.7;98.04492;931.0006;;;;
2023/10/22 03:21:53;;;;;;;0.2;0.2;;;;;;;10.77;98.06348;931.0427;;;;
2023/10/22 03:24:22;;;;;;;0.2;0.2;;;;;;;10.8;97.61328;931.0266;;;;
2023/10/22 03:26:45;;;;;;;0.2;0.2;;;;;;;10.69;96.56934;930.9927;;;;
2023/10/22 03:29:09;;;;;;;0.2;0.2;;;;;;;10.79;96.96875;931.0505;;;;
2023/10/22 03:31:41;;;;;;;0.2;0.2;;;;;;;10.73;96.31738;931.0634;;;;
2023/10/22 03:34:07;;;;;;;0.6;0.2;;;;;;;10.62;96.44141;931.0184;;;;
2023/10/22 03:36:33;;;;;;;0.3;0.2;;;;;;;10.53;97.38086;931.0247;;;;
2023/10/22 03:39:00;;;;;;;0.1;0.1;;;;;;;10.61;98.04785;931.0221;;;;
2023/10/22 03:41:25;;;;;;;0.4;0.4;;;;;;;10.75;96.25293;931.0204;;;;
2023/10/22 03:43:54;;;;;;;0.3;0.3;;;;;;;10.83;94.68066;931.0045;;;;
2023/10/22 03:46:20;;;;;;;0.4;0.4;;;;;;;10.82;95.40039;930.9989;;;;
2023/10/22 03:48:47;;;;;;;0.3;0.3;;;;;;;10.64;97.30176;930.9913;;;;
2023/10/22 03:51:12;;;;;;;0.1;0.1;;;;;;;10.52;98.10742;931.0025;;;;
2023/10/22 03:53:40;;;;;;;0.3;0.3;;;;;;;10.41;98.91602;931.1061;;;;
2023/10/22 03:56:05;;;;;;;0.3;0.3;;;;;;;10.27;99.73828;931.153;;;;
2023/10/22 03:58:33;;;;;;;0.7;0.4;;;;;;;10.18;100;931.1047;;;;
2023/10/22 04:02:31;;;;;;;0.4;0.4;;;;;;;10.02;100;931.1501;;;;
2023/10/22 04:04:58;;;;;;;0.4;0.4;;;;;;;10.12;100;931.1677;;;;
2023/10/22 04:07:24;;;;;;;0.5;0.5;;;;;;;10.16;100;931.2026;;;;
2023/10/22 04:09:51;;;;;;;0.2;0.2;;;;;;;9.99;100;931.2429;;;;
2023/10/22 04:12:16;;;;;;;0.2;0.2;;;;;;;10.07;100;931.1255;;;;
2023/10/22 04:14:44;;;;;;;0.2;0.2;;;;;;;10.04;100;931.0858;;;;
2023/10/22 04:17:10;;;;;;;0.2;0.2;;;;;;;10.08;100;931.162;;;;
2023/10/22 04:19:37;;;;;;;0.5;0.5;;;;;;;10.2;100;931.1811;;;;
2023/10/22 04:22:04;;;;;;;0.3;0.3;;;;;;;10.27;100;931.2294;;;;
2023/10/22 04:24:35;;;;;;;0.3;0.3;;;;;;;10.34;100;931.2428;;;;
2023/10/22 04:27:00;;;;;;;0.3;0.3;;;;;;;10.28;100;931.2708;;;;
2023/10/22 04:29:26;;;;;;;0.9;0.5;;;;;;;10.31;100;931.2787;;;;
2023/10/22 04:31:54;;;;;;;0.7;0.5;;;;;;;10.41;99.8291;931.2573;;;;
2023/10/22 04:34:20;;;;;;;0.6;0.5;;;;;;;10.4;99.09863;931.2905;;;;
2023/10/22 04:36:44;;;;;;;1.8;0.3;;;;;;;10.4;99.17578;931.2952;;;;
2023/10/22 04:39:11;;;;;;;0.4;0.4;;;;;;;10.41;99.03027;931.3152;;;;
2023/10/22 04:41:36;;;;;;;0.4;0.4;;;;;;;10.38;99.29785;931.3605;;;;
2023/10/22 04:44:02;;;;;;;0.4;0.4;;;;;;;10.28;99.62891;931.4243;;;;
2023/10/22 04:46:29;;;;;;;0.3;0.2;;;;;;;10.27;99.49902;931.3997;;;;
2023/10/22 04:48:55;;;;;;;0.5;0.5;;;;;;;10.14;100;931.4786;;;;
2023/10/22 04:51:22;;;;;;;0.3;0.3;;;;;;;10.23;100;931.4164;;;;
2023/10/22 04:53:47;;;;;;;0.4;0.4;;;;;;;10.3;99.58887;931.472;;;;
2023/10/22 04:56:15;;;;;;;1;0.4;;;;;;;10.21;100;931.394;;;;
2023/10/22 04:58:40;;;;;;;0.3;0.3;;;;;;;10.26;100;931.4315;;;;
2023/10/22 05:01:08;;;;;;;0.9;0.5;;;;;;;10.42;99.99121;931.4666;;;;
2023/10/22 05:03:33;;;;;;;0.5;0.5;;;;;;;10.44;98.83301;931.4236;;;;
2023/10/22 05:05:59;;;;;;;0.5;0.5;;;;;;;10.5;98.8584;931.4092;;;;
2023/10/22 05:08:26;;;;;;;0.7;0.5;;;;;;;10.52;99.10059;931.5229;;;;
2023/10/22 05:10:59;;;;;;;0.8;0.7;;;;;;;10.66;98.18555;931.4386;;;;
2023/10/22 05:13:24;;;;;;;1.5;1.2;;;;;;;10.81;96.29004;931.5294;;;;
2023/10/22 05:15:54;;;;;;;1.6;1.1;;;;;;;10.68;95.74512;931.55;;;;
2023/10/22 05:18:17;;;;;;;0.7;0.7;;;;;;;10.54;96.72949;931.5978;;;;
2023/10/22 05:20:45;;;;;;;0.9;0.8;;;;;;;10.45;97.4082;931.6186;;;;
2023/10/22 05:23:10;;;;;;;0.7;0.6;;;;;;;10.48;97.9502;931.5724;;;;
2023/10/22 05:25:40;;;;;;;0.8;0.8;;;;;;;10.59;98.04395;931.5889;;;;
2023/10/22 05:28:05;;;;;;;1.3;0.8;;;;;;;10.66;97.51172;931.5867;;;;
2023/10/22 05:30:34;;;;;;;0.8;0.7;;;;;;;10.7;97.72559;931.632;;;;
2023/10/22 05:33:00;;;;;;;0.6;0.6;;;;;;;10.54;98.93359;931.6702;;;;
2023/10/22 05:35:24;;;;;;;0.6;0.6;;;;;;;10.47;99.19043;931.6616;;;;
2023/10/22 05:37:51;;;;;;;1;0.6;;;;;;;10.47;98.21094;931.6655;;;;
2023/10/22 05:40:16;;;;;;;0.5;0.5;;;;;;;10.24;99.12988;931.7004;;;;
2023/10/22 05:42:43;;;;;;;0.5;0.5;;;;;;;10.22;99.4082;931.7855;;;;
2023/10/22 05:45:09;;;;;;;0.6;0.6;;;;;;;10.22;99.65039;931.8038;;;;
2023/10/22 05:47:37;;;;;;;1.2;0.7;;;;;;;10.19;99.75586;931.9154;;;;
2023/10/22 05:50:02;;;;;;;0.8;0.8;;;;;;;10.11;100;931.8851;;;;
2023/10/22 05:52:29;;;;;;;0.7;0.7;;;;;;;10.19;100;931.9384;;;;
2023/10/22 05:54:54;;;;;;;1.5;0.5;;;;;;;10.13;100;931.9344;;;;
2023/10/22 05:57:28;;;;;;;0.5;0.5;;;;;;;10.2;100;932.0005;;;;
2023/10/22 05:59:49;;;;;;;0.8;0.4;;;;;;;10.28;100;932.0878;;;;
2023/10/22 06:02:21;;;;;;;1.7;0.9;;;;;;;10.38;99.99414;932.1213;;;;
2023/10/22 06:04:46;;;;;;;0.6;0.5;;;;;;;10.44;99.32129;932.1717;;;;
2023/10/22 06:07:17;;;;;;;0.7;0.7;;;;;;;10.51;98.89258;932.2075;;;;
2023/10/22 06:09:47;;;;;;;1.1;0.7;;;;;;;10.55;98.65234;932.1669;;;;
2023/10/22 06:12:19;;;;;;;2.1;1.3;;;;;;;10.58;98.39746;932.2394;;;;
2023/10/22 06:14:44;;;;;;;0.8;0.8;;;;;;;10.49;97.73535;932.3237;;;;
2023/10/22 06:17:14;;;;;;;0.7;0.7;;;;;;;10.52;98.46094;932.2776;;;;
2023/10/22 06:19:39;;;;;;;0.6;0.6;;;;;;;10.33;98.02051;932.3329;;;;
2023/10/22 06:22:07;;;;;;;2.2;1.4;;;;;;;10.25;98.77539;932.2859;;;;
2023/10/22 06:24:32;;;;;;;1.9;1.4;;;;;;;10.31;99.36133;932.3226;;;;
2023/10/22 06:27:00;;;;;;;1.2;1;;;;;;;10.31;99.7627;932.3282;;;;
2023/10/22 06:29:25;;;;;;;1.5;1.4;;;;;;;10.39;99.71094;932.2766;;;;
2023/10/22 06:31:52;;;;;;;1.2;1.1;;;;;;;10.4;99.47266;932.3713;;;;
2023/10/22 06:34:17;;;;;;;1.6;1;;;;;;;10.45;99.00391;932.4001;;;;
2023/10/22 06:36:47;;;;;;;1.6;1.2;;;;;;;10.51;99.29492;932.2609;;;;
2023/10/22 06:39:16;;;;;;;1.4;1.2;;;;;;;10.62;97.5127;932.3813;;;;
2023/10/22 06:41:42;;;;;;;1.6;0.9;;;;;;;10.63;96.92285;932.3033;;;;
2023/10/22 06:44:07;;;;;;;1;0.9;;;;;;;10.51;97.77441;932.4249;;;;
2023/10/22 06:46:34;;;;;;;2.2;1.3;;;;;;;10.34;97.74609;932.4818;;;;
2023/10/22 06:48:59;;;;;;;2;1.4;;;;;;;10.46;98.77734;932.4805;;;;
2023/10/22 06:51:29;;;;;;;1.7;1.6;;;;;;;10.51;98.39258;932.4869;;;;
2023/10/22 06:54:01;;;;;;;2.1;1.2;;;;;;;10.67;97.55957;932.4832;;;;
2023/10/22 06:56:31;;;;;;;1.3;1.2;;;;;;;10.82;97.4209;932.6021;;;;
2023/10/22 06:58:56;;;;;;;1.3;1.2;;;;;;;10.84;97.00391;932.6746;;;;
2023/10/22 07:01:24;;;;;;;1.3;1.2;;;;;;;10.92;98.09473;932.7764;;;;
2023/10/22 07:03:49;;;;;;;0.8;0.8;;;;;;;11.01;97.50879;932.7173;;;;
2023/10/22 07:06:17;;;;;;;1.3;0.8;;;;;;;11.07;96.16309;932.6474;;;;
2023/10/22 07:08:43;;;;;;;1;0.9;;;;;;;11;95.72363;932.7301;;;;
2023/10/22 07:11:12;;;;;;;0.7;0.6;;;;;;;10.9;94.27539;932.762;;;;
2023/10/22 07:13:37;;;;;;;0.6;0.6;;;;;;;10.86;94.11719;932.8115;;;;
2023/10/22 07:16:08;;;;;;;1.2;1.1;;;;;;;10.96;93.63574;932.7477;;;;
2023/10/22 07:18:33;;;;;;;0.7;0.7;;;;;;;11.06;94.1377;932.802;;;;
2023/10/22 07:20:58;;;;;;;1;1;;;;;;;10.98;94.89941;932.8329;;;;
2023/10/22 07:23:31;;;;;;;0.9;0.9;;;;;;;11;94.8916;932.9094;;;;
2023/10/22 07:25:58;;;;;;;0.8;0.5;;;;;;;11.07;94.81445;932.8936;;;;
2023/10/22 07:28:24;;;;;;;0.6;0.5;;;;;;;11.04;95.57422;932.8857;;;;
2023/10/22 07:30:53;;;;;;;0.9;0.6;;;;;;;11.23;95.73242;932.8865;;;;
2023/10/22 07:33:19;;;;;;;0.6;0.6;;;;;;;11.37;95.22266;932.9228;;;;
2023/10/22 07:35:46;;;;;;;0.4;0.4;;;;;;;11.45;94.19922;932.8903;;;;
2023/10/22 07:38:12;;;;;;;0.4;0.4;;;;;;;11.47;93.90723;932.8878;;;;
2023/10/22 07:41:57;;;;;;;0.5;0.5;;;;;;;11.65;93.21191;932.8748;;;;
2023/10/22 07:44:26;;;;;;;0.6;0.6;;;;;;;11.61;93.04199;932.8842;;;;
2023/10/22 07:46:51;;;;;;;0.5;0.5;;;;;;;11.63;93.27637;932.9498;;;;
2023/10/22 07:49:22;;;;;;;0.6;0.6;;;;;;;11.66;92.58594;932.9504;;;;
2023/10/22 07:51:53;;;;;;;0.5;0.5;;;;;;;11.48;90.69238;932.9603;;;;
2023/10/22 07:54:22;;;;;;;0.6;0.5;;;;;;;11.52;91.50488;932.9928;;;;
2023/10/22 07:56:47;;;;;;;0.7;0.6;;;;;;;11.63;92.76172;933.0072;;;;
2023/10/22 07:59:18;;;;;;;1.3;0.7;;;;;;;11.79;90.40332;933.0316;;;;
2023/10/22 08:01:49;;;;;;;1;0.6;;;;;;;11.74;90.54297;933.0164;;;;
2023/10/22 08:04:18;;;;;;;0.6;0.6;;;;;;;12;89.58887;933.0183;;;;
2023/10/22 08:06:43;;;;;;;1.6;0.8;;;;;;;12.11;90.15039;933.0555;;;;
2023/10/22 08:09:13;;;;;;;0.5;0.5;;;;;;;12.1;85.84961;933.0204;;;;
2023/10/22 08:11:38;;;;;;;0.5;0.5;;;;;;;11.93;86.96094;933.0466;;;;
2023/10/22 08:14:06;;;;;;;1.1;0.7;;;;;;;12.14;86.99316;933.0162;;;;
2023/10/22 08:16:31;;;;;;;1;0.9;;;;;;;12.48;87.51855;933.1523;;;;
2023/10/22 08:18:58;;;;;;;0.8;0.8;;;;;;;12.63;88.67578;933.1467;;;;
2023/10/22 08:21:24;;;;;;;0.6;0.6;;;;;;;12.88;83.69531;933.0829;;;;
2023/10/22 08:23:59;;;;;;;0.6;0.6;;;;;;;13.2;85.23047;933.1152;;;;
2023/10/22 08:26:24;;;;;;;0.5;0.5;;;;;;;13.69;83.43945;933.1641;;;;
2023/10/22 08:28:52;;;;;;;0.4;0.3;;;;;;;13.75;77.73145;933.1169;;;;
2023/10/22 08:31:17;;;;;;;0.8;0.7;;;;;;;13.65;79.26855;933.0876;;;;
2023/10/22 08:33:44;;;;;;;0.9;0.4;;;;;;;13.48;77.39941;933.0891;;;;
2023/10/22 08:36:10;;;;;;;0.7;0.5;;;;;;;13.05;79.68652;933.0594;;;;
2023/10/22 08:38:35;;;;;;;0.5;0.4;;;;;;;13.34;79.35059;933.0862;;;;
2023/10/22 08:41:01;;;;;;;0.5;0.5;;;;;;;13.69;78.9082;933.1128;;;;
2023/10/22 08:43:27;;;;;;;0.4;0.4;;;;;;;14.1;78.59082;933.0358;;;;
2023/10/22 08:45:52;;;;;;;0.8;0.8;;;;;;;14.31;77.60254;933.1262;;;;
2023/10/22 08:48:21;;;;;;;0.5;0.5;;;;;;;14.28;76.23926;933.2042;;;;
2023/10/22 08:50:48;;;;;;;0.9;0.5;;;;;;;14.39;74.89746;933.2173;;;;
2023/10/22 08:53:14;;;;;;;0.3;0.3;;;;;;;14.49;74.16504;933.235;;;;
2023/10/22 08:55:39;;;;;;;0.4;0.4;;;;;;;14.3;72.22266;933.1264;;;;
2023/10/22 08:58:06;;;;;;;1.2;0.5;;;;;;;14.56;74.04102;933.181;;;;
2023/10/22 09:00:31;;;;;;;0.5;0.5;;;;;;;14.7;75.91016;933.2058;;;;
2023/10/22 09:02:56;;;;;;;0.6;0.6;;;;;;;14.85;77.07715;933.2375;;;;
2023/10/22 09:05:24;;;;;;;0.3;0.3;;;;;;;14.64;74.56152;933.1497;;;;
2023/10/22 09:07:49;;;;;;;0.7;0.4;;;;;;;14.7;74.00781;933.1497;;;;
2023/10/22 09:10:22;;;;;;;2;1;;;;;;;14.57;73.74121;933.1873;;;;
2023/10/22 09:12:53;;;;;;;0.3;0.2;;;;;;;14.62;73.06055;933.1067;;;;
2023/10/22 09:15:19;;;;;;;1.7;1.1;;;;;;;14.68;75.21387;933.1139;;;;
2023/10/22 09:17:45;;;;;;;0.4;0.4;;;;;;;14.76;72.80664;933.0991;;;;
2023/10/22 09:20:11;;;;;;;0.2;0.2;;;;;;;14.49;72.15039;933.0947;;;;
2023/10/22 09:22:40;;;;;;;0.2;0.2;;;;;;;14.7;73.21289;933.0856;;;;
2023/10/22 09:25:05;;;;;;;0.3;0.2;;;;;;;14.7;72.18652;933.0911;;;;
2023/10/22 09:27:31;;;;;;;0.3;0.2;;;;;;;14.81;72.49219;933.0711;;;;
2023/10/22 09:29:56;;;;;;;2.4;1.5;;;;;;;14.76;71.14648;933.1119;;;;
2023/10/22 09:32:22;;;;;;;1.7;0.5;;;;;;;14.91;71.52832;933.1164;;;;
2023/10/22 09:34:47;;;;;;;0.4;0.4;;;;;;;14.87;70.65625;933.0192;;;;
2023/10/22 09:37:16;;;;;;;0.4;0.4;;;;;;;14.77;70.8252;933.0492;;;;
2023/10/22 09:39:46;;;;;;;0.5;0.4;;;;;;;14.65;73.09961;933.0839;;;;
2023/10/22 09:42:11;;;;;;;0.3;0.3;;;;;;;14.85;72.03613;933.0267;;;;
2023/10/22 09:44:40;;;;;;;0.3;0.3;;;;;;;15.03;72.125;932.9889;;;;
2023/10/22 09:47:06;;;;;;;0.6;0.4;;;;;;;15.04;70.53418;932.9622;;;;
2023/10/22 09:49:32;;;;;;;0.4;0.4;;;;;;;15.15;68.9375;933.0277;;;;
2023/10/22 09:51:55;;;;;;;0.3;0.3;;;;;;;15.03;65.95313;933.0026;;;;
2023/10/22 09:54:23;;;;;;;0.4;0.3;;;;;;;15.02;70.89941;932.9465;;;;
2023/10/22 09:56:48;;;;;;;0.7;0.6;;;;;;;14.98;65.32227;932.9863;;;;
2023/10/22 09:59:18;;;;;;;0.5;0.5;;;;;;;14.93;66.16699;932.9302;;;;
2023/10/22 10:01:42;;;;;;;0.5;0.4;;;;;;;15.06;66.07227;932.9444;;;;
2023/10/22 10:04:11;;;;;;;0.3;0.3;;;;;;;15.23;65.10547;932.9297;;;;
2023/10/22 10:06:35;;;;;;;0.4;0.4;;;;;;;15.16;65.84668;932.9266;;;;
2023/10/22 10:09:04;;;;;;;0.3;0.3;;;;;;;15.18;64.69531;932.9358;;;;
2023/10/22 10:11:28;;;;;;;0.5;0.3;;;;;;;15.16;64.86523;932.9619;;;;
2023/10/22 10:13:53;;;;;;;0.3;0.2;;;;;;;15.3;62.91016;932.8957;;;;
2023/10/22 10:16:19;;;;;;;0.5;0.2;;;;;;;15.48;63.19043;932.9465;;;;
2023/10/22 10:18:44;;;;;;;0.2;0.2;;;;;;;15.52;65.70313;932.937;;;;
2023/10/22 10:21:13;;;;;;;0.3;0.3;;;;;;;15.7;68.2373;932.9375;;;;
2023/10/22 10:23:40;;;;;;;0.2;0.2;;;;;;;15.8;66.98145;932.7863;;;;
2023/10/22 10:26:05;;;;;;;0.9;0.3;;;;;;;15.97;65.30859;932.7991;;;;
2023/10/22 10:28:30;;;;;;;0.2;0.2;;;;;;;16;64.16895;932.7969;;;;
2023/10/22 10:30:58;;;;;;;0.7;0.3;;;;;;;15.86;65.99707;932.7653;;;;
2023/10/22 10:33:29;;;;;;;0.2;0.2;;;;;;;15.94;66.75977;932.7324;;;;
2023/10/22 10:35:57;;;;;;;0.4;0.4;;;;;;;15.9;65.7373;932.7075;;;;
2023/10/22 10:38:23;;;;;;;0.2;0.2;;;;;;;15.73;61.27441;932.6519;;;;
2023/10/22 10:40:55;;;;;;;0.5;0.2;;;;;;;15.74;62.05078;932.6331;;;;
2023/10/22 10:43:20;;;;;;;0.1;0.1;;;;;;;15.77;62.82813;932.6576;;;;
2023/10/22 10:45:47;;;;;;;0.1;0.1;;;;;;;16.08;61.10547;932.6205;;;;
2023/10/22 10:48:14;;;;;;;0.4;0.4;;;;;;;16.13;61.13574;932.6612;;;;
2023/10/22 10:50:43;;;;;;;0.5;0.2;;;;;;;15.98;59.5752;932.6328;;;;
2023/10/22 10:53:09;;;;;;;0.4;0.3;;;;;;;16.13;59.79297;932.6122;;;;
2023/10/22 10:55:36;;;;;;;0.2;0.2;;;;;;;16.28;60.88867;932.644;;;;
2023/10/22 10:58:01;;;;;;;0.4;0.4;;;;;;;16.07;62.24707;932.6914;;;;
2023/10/22 11:00:30;;;;;;;0.9;0.3;;;;;;;16.55;59.27246;932.7338;;;;
2023/10/22 11:02:54;;;;;;;0.2;0.2;;;;;;;17.21;56.91309;932.6729;;;;
2023/10/22 11:05:22;;;;;;;0.3;0.2;;;;;;;17.13;56.9502;932.7006;;;;
2023/10/22 11:07:47;;;;;;;0.2;0.2;;;;;;;17.04;58.2832;932.7277;;;;
2023/10/22 11:10:16;;;;;;;0.2;0.2;;;;;;;17.05;55.67676;932.6945;;;;
2023/10/22 11:12:44;;;;;;;0.2;0.2;;;;;;;16.92;57.68848;932.7254;;;;
2023/10/22 11:15:16;;;;;;;0.4;0.3;;;;;;;17.44;57.68555;932.6185;;;;
2023/10/22 11:17:40;;;;;;;0.3;0.2;;;;;;;17.61;55.84082;932.5995;;;;
2023/10/22 11:20:07;;;;;;;0.2;0.2;;;;;;;17.91;54.625;932.5228;;;;
2023/10/22 11:22:32;;;;;;;0.4;0.2;;;;;;;18.04;56.60449;932.5227;;;;
2023/10/22 11:25:00;;;;;;;0.6;0.2;;;;;;;18.55;51.9248;932.6284;;;;
2023/10/22 11:27:24;;;;;;;0.2;0.2;;;;;;;19.02;51.26953;932.5722;;;;
2023/10/22 11:29:52;;;;;;;0.2;0.2;;;;;;;20.74;46.05859;932.5471;;;;
2023/10/22 11:32:17;;;;;;;0.4;0.3;;;;;;;21.78;44.35156;932.5477;;;;
2023/10/22 11:34:44;;;;;;;0.2;0.2;;;;;;;21.78;45.33398;932.5544;;;;
2023/10/22 11:37:10;;;;;;;0.8;0.3;;;;;;;22.63;44.6123;932.5119;;;;
2023/10/22 11:39:35;;;;;;;0.2;0.1;;;;;;;22.69;43.39648;932.5684;;;;
2023/10/22 11:42:07;;;;;;;0.9;0.3;;;;;;;23.97;39.7666;932.5292;;;;
2023/10/22 11:44:29;;;;;;;0.3;0.3;;;;;;;25.31;37.67773;932.5022;;;;
2023/10/22 11:46:53;;;;;;;0.6;0.4;;;;;;;26.57;35.75977;932.5059;;;;
2023/10/22 11:49:21;;;;;;;0.8;0.2;;;;;;;27.95;31.77148;932.4792;;;;
2023/10/22 11:51:50;;;;;;;0.4;0.4;;;;;;;26.85;34.83398;932.5096;;;;
2023/10/22 11:54:15;;;;;;;0.2;0.2;;;;;;;25.35;37.00879;932.4861;;;;
2023/10/22 11:56:40;;;;;;;0.8;0.3;;;;;;;23.69;41.15332;932.4534;;;;
2023/10/22 11:59:07;;;;;;;0.2;0.2;;;;;;;24.53;37.55273;932.4;;;;
2023/10/22 12:01:35;;;;;;;0.3;0.3;;;;;;;23.76;41.57227;932.4043;;;;
2023/10/22 12:04:03;;;;;;;0.2;0.2;;;;;;;27.18;34.95508;932.3777;;;;
2023/10/22 12:06:27;;;;;;;1.5;0.3;;;;;;;28.89;30.75488;932.4588;;;;
2023/10/22 12:08:55;;;;;;;0.2;0.2;;;;;;;29.71;30.45313;932.4402;;;;
2023/10/22 12:11:23;;;;;;;0.3;0.2;;;;;;;31.87;28.25098;932.4052;;;;
2023/10/22 12:13:49;;;;;;;0.5;0.3;;;;;;;32.2;26.87988;932.4309;;;;
2023/10/22 12:16:16;;;;;;;0.3;0.3;;;;;;;31.14;28.06152;932.4081;;;;
2023/10/22 12:18:41;;;;;;;0.5;0.4;;;;;;;28.51;31.68066;932.3569;;;;
2023/10/22 12:21:06;;;;;;;0.4;0.3;;;;;;;25.02;37.48828;932.4244;;;;
2023/10/22 12:23:34;;;;;;;1.1;0.3;;;;;;;23.81;39.06934;932.4995;;;;
2023/10/22 12:25:59;;;;;;;0.4;0.3;;;;;;;24.98;36.90723;932.4325;;;;
2023/10/22 12:28:28;;;;;;;1.2;0.4;;;;;;;26.19;35.49316;932.4724;;;;
2023/10/22 12:30:51;;;;;;;0.2;0.2;;;;;;;27.74;32.08887;932.4768;;;;
2023/10/22 12:33:19;;;;;;;0.6;0.3;;;;;;;28.29;32.83008;932.5306;;;;
2023/10/22 12:35:44;;;;;;;0.6;0.4;;;;;;;30.57;28.40918;932.465;;;;
2023/10/22 12:38:11;;;;;;;0.4;0.4;;;;;;;32.04;26.87012;932.4344;;;;
2023/10/22 12:40:37;;;;;;;0.6;0.4;;;;;;;31.68;26.9209;932.4495;;;;
2023/10/22 12:43:05;;;;;;;0.3;0.3;;;;;;;30.01;28.81543;932.4581;;;;
2023/10/22 12:45:30;;;;;;;0.3;0.3;;;;;;;31.07;27.80566;932.4928;;;;
2023/10/22 12:47:58;;;;;;;0.4;0.3;;;;;;;33.42;25.33008;932.5;;;;
2023/10/22 12:50:23;;;;;;;0.6;0.4;;;;;;;32.23;26.66602;932.4411;;;;
2023/10/22 12:52:52;;;;;;;0.6;0.4;;;;;;;30.3;29.19141;932.4533;;;;
2023/10/22 12:55:17;;;;;;;1.2;0.3;;;;;;;29.02;31.13379;932.4291;;;;
2023/10/22 12:57:43;;;;;;;0.8;0.3;;;;;;;29.23;30.39648;932.4412;;;;
2023/10/22 13:00:11;;;;;;;0.2;0.2;;;;;;;28.02;32.6084;932.5123;;;;
2023/10/22 13:02:34;;;;;;;0.4;0.3;;;;;;;30.02;29.14941;932.5486;;;;
2023/10/22 13:05:01;;;;;;;0.5;0.3;;;;;;;31.97;26.19531;932.5458;;;;
2023/10/22 13:07:26;;;;;;;0.4;0.4;;;;;;;32.4;25.65625;932.5856;;;;
2023/10/22 13:09:51;;;;;;;0.2;0.2;;;;;;;33.21;25.99121;932.5552;;;;
2023/10/22 13:12:16;;;;;;;0.4;0.4;;;;;;;33.91;23.94824;932.5402;;;;
2023/10/22 13:14:46;;;;;;;0.6;0.4;;;;;;;34.15;24.20215;932.4719;;;;
2023/10/22 13:17:11;;;;;;;0.6;0.3;;;;;;;31.01;27.69531;932.47;;;;
2023/10/22 13:19:40;;;;;;;0.4;0.4;;;;;;;29.4;29.50293;932.4139;;;;
2023/10/22 13:22:06;;;;;;;0.5;0.2;;;;;;;29.22;30.07422;932.5572;;;;
2023/10/22 13:24:34;;;;;;;0.3;0.3;;;;;;;28.62;30.92676;932.5474;;;;
2023/10/22 13:26:59;;;;;;;0.4;0.3;;;;;;;28.79;30.65332;932.507;;;;
2023/10/22 13:29:30;;;;;;;0.6;0.3;;;;;;;29.36;30.67969;932.4575;;;;
2023/10/22 13:31:55;;;;;;;0.5;0.3;;;;;;;30.86;27.56641;932.4752;;;;
2023/10/22 13:34:20;;;;;;;0.9;0.4;;;;;;;30.99;28.67383;932.4578;;;;
2023/10/22 13:36:45;;;;;;;0.5;0.4;;;;;;;30.86;27.53027;932.4734;;;;
2023/10/22 13:39:12;;;;;;;0.6;0.3;;;;;;;30.85;27.27832;932.4122;;;;
2023/10/22 13:41:37;;;;;;;0.4;0.3;;;;;;;31.74;26.76953;932.4926;;;;
2023/10/22 13:44:03;;;;;;;0.2;0.2;;;;;;;31.89;26.66992;932.483;;;;
2023/10/22 13:46:30;;;;;;;0.9;0.3;;;;;;;31.67;26.95703;932.4586;;;;
2023/10/22 13:48:55;;;;;;;0.3;0.3;;;;;;;31.34;27.83496;932.4724;;;;
2023/10/22 13:51:21;;;;;;;0.5;0.3;;;;;;;31.71;27.11523;932.5251;;;;
2023/10/22 13:53:46;;;;;;;0.4;0.4;;;;;;;30.3;28.64258;932.5211;;;;
2023/10/22 13:56:15;;;;;;;0.3;0.3;;;;;;;27.74;32.38672;932.5806;;;;
2023/10/22 13:58:39;;;;;;;0.5;0.3;;;;;;;28.76;30.74609;932.5984;;;;
2023/10/22 14:01:05;;;;;;;0.3;0.3;;;;;;;30.16;28.26367;932.5411;;;;
2023/10/22 14:03:30;;;;;;;0.2;0.2;;;;;;;31.75;26.97363;932.5966;;;;
2023/10/22 14:05:59;;;;;;;0.3;0.3;;;;;;;30.26;27.91211;932.5705;;;;
2023/10/22 14:08:25;;;;;;;0.3;0.3;;;;;;;30.99;26.96387;932.6279;;;;
2023/10/22 14:10:53;;;;;;;0.7;0.4;;;;;;;30.54;27.41504;932.6483;;;;
2023/10/22 14:13:18;;;;;;;0.2;0.2;;;;;;;30.62;28.14941;932.6422;;;;
2023/10/22 14:15:47;;;;;;;1.2;0.4;;;;;;;30.49;28.16406;932.668;;;;
2023/10/22 14:18:10;;;;;;;0.3;0.3;;;;;;;30.1;28.65332;932.6601;;;;
2023/10/22 14:20:38;;;;;;;0.3;0.2;;;;;;;30.04;28.85352;932.6824;;;;
2023/10/22 14:23:03;;;;;;;0.7;0.3;;;;;;;29.91;28.83203;932.6861;;;;
2023/10/22 14:25:37;;;;;;;0.4;0.3;;;;;;;29.22;30.61035;932.7399;;;;